Time;durP1;ratioP1;P1;durP2;ratioP2;P2;SDS_P1;SDS_P2;PMS_P1;PMS_P2;Temp;Humidity;BMP_temperature;BMP_pressure;BME280_temperature;BME280_humidity;BME280_pressure;Samples;Min_cycle;Max_cycle;Signal;HPM_P1;HPM_P2
2023/11/05 00:02:10;;;;;;;0.15;0.15;;;9.80;99.90;;;;;;4996582;28;20037;-68
2023/11/05 00:04:36;;;;;;;0.40;0.40;;;9.90;99.90;;;;;;4996357;28;20037;-68
2023/11/05 00:07:03;;;;;;;0.10;0.10;;;9.80;99.90;;;;;;4996340;28;20474;-68
2023/11/05 00:09:28;;;;;;;3.17;0.22;;;9.80;99.90;;;;;;4996225;28;20080;-68
2023/11/05 00:11:54;;;;;;;0.85;0.38;;;9.80;99.90;;;;;;5014203;28;20030;-68
2023/11/05 00:14:20;;;;;;;0.25;0.20;;;9.80;99.90;;;;;;5003983;28;20461;-68
2023/11/05 00:16:46;;;;;;;0.32;0.30;;;9.80;99.90;;;;;;5012525;28;20034;-68
2023/11/05 00:19:11;;;;;;;0.30;0.20;;;9.80;99.90;;;;;;5013304;28;20018;-68
2023/11/05 00:21:37;;;;;;;0.10;0.10;;;9.70;99.90;;;;;;5014103;28;20036;-68
2023/11/05 00:24:03;;;;;;;0.25;0.20;;;9.80;99.90;;;;;;4995519;28;20026;-68
2023/11/05 00:26:29;;;;;;;0.95;0.50;;;9.80;99.90;;;;;;5013672;28;20033;-68
2023/11/05 00:28:55;;;;;;;0.20;0.20;;;9.80;99.90;;;;;;4995426;28;20034;-68
2023/11/05 00:31:21;;;;;;;0.15;0.15;;;9.80;99.90;;;;;;5012658;28;20427;-68
2023/11/05 00:33:46;;;;;;;0.00;0.00;;;9.80;99.90;;;;;;5013599;28;20061;-68
2023/11/05 00:36:13;;;;;;;0.03;0.00;;;9.90;99.90;;;;;;5012023;28;20483;-68
2023/11/05 00:38:38;;;;;;;0.20;0.13;;;9.90;99.90;;;;;;5013923;28;20018;-68
2023/11/05 00:41:04;;;;;;;1.33;0.20;;;9.90;99.90;;;;;;5013647;28;20030;-68
2023/11/05 00:43:30;;;;;;;0.43;0.43;;;10.00;99.90;;;;;;5013791;28;20026;-68
2023/11/05 00:45:56;;;;;;;2.38;0.60;;;10.00;99.90;;;;;;5014462;28;20042;-70
2023/11/05 00:48:22;;;;;;;0.00;0.00;;;10.00;99.90;;;;;;5015558;28;20398;-69
2023/11/05 00:50:50;;;;;;;0.13;0.13;;;10.10;99.90;;;;;;5016435;28;20034;-68
2023/11/05 00:53:16;;;;;;;0.30;0.20;;;10.20;99.90;;;;;;5017844;28;20042;-68
2023/11/05 00:55:42;;;;;;;0.17;0.13;;;10.20;99.90;;;;;;5012410;28;20030;-68
2023/11/05 00:58:07;;;;;;;0.30;0.28;;;10.20;99.90;;;;;;5012984;28;20421;-68
2023/11/05 01:00:33;;;;;;;0.95;0.15;;;10.30;99.90;;;;;;4995280;28;20475;-68
2023/11/05 01:02:59;;;;;;;2.72;0.20;;;10.30;99.90;;;;;;5012755;28;20077;-68
2023/11/05 01:05:24;;;;;;;0.10;0.10;;;10.30;99.90;;;;;;5003240;28;20040;-67
2023/11/05 01:07:50;;;;;;;0.20;0.20;;;10.40;99.90;;;;;;5013486;28;20029;-67
2023/11/05 01:10:16;;;;;;;2.50;0.20;;;10.40;99.90;;;;;;5012004;28;20128;-67
2023/11/05 01:12:42;;;;;;;0.13;0.13;;;10.40;99.90;;;;;;5012679;28;20034;-67
2023/11/05 01:15:08;;;;;;;0.22;0.13;;;10.40;99.90;;;;;;5011991;28;20462;-68
2023/11/05 01:17:34;;;;;;;0.28;0.28;;;10.50;99.90;;;;;;5012310;28;20080;-68
2023/11/05 01:20:01;;;;;;;0.00;0.00;;;10.60;99.90;;;;;;5011859;28;20394;-67
2023/11/05 01:22:26;;;;;;;0.30;0.22;;;10.60;99.90;;;;;;5012528;28;20025;-68
2023/11/05 01:24:52;;;;;;;0.00;0.00;;;10.70;99.90;;;;;;4994636;28;20038;-67
2023/11/05 01:27:18;;;;;;;2.72;0.63;;;10.70;99.90;;;;;;5012214;28;20052;-68
2023/11/05 01:29:44;;;;;;;2.15;0.32;;;10.80;99.90;;;;;;5011453;28;20112;-67
2023/11/05 01:32:09;;;;;;;1.05;0.65;;;10.80;99.90;;;;;;4994725;28;20036;-67
2023/11/05 01:34:35;;;;;;;0.00;0.00;;;10.70;99.90;;;;;;4994229;28;20049;-67
2023/11/05 01:37:01;;;;;;;6.68;0.30;;;10.70;99.90;;;;;;5011891;28;20118;-67
2023/11/05 01:39:27;;;;;;;2.75;0.80;;;10.80;99.90;;;;;;4972718;28;20186;-66
2023/11/05 01:41:53;;;;;;;0.10;0.10;;;10.80;99.90;;;;;;5011634;28;20091;-68
2023/11/05 01:44:21;;;;;;;7.28;0.22;;;10.80;99.90;;;;;;4994306;28;20030;-67
2023/11/05 01:46:47;;;;;;;0.10;0.10;;;10.80;99.90;;;;;;5011895;28;20034;-67
2023/11/05 01:49:13;;;;;;;0.00;0.00;;;10.70;99.90;;;;;;4994466;28;20104;-68
2023/11/05 01:51:40;;;;;;;3.83;0.55;;;10.70;99.90;;;;;;5010961;28;20105;-67
2023/11/05 01:54:08;;;;;;;0.25;0.25;;;10.80;99.90;;;;;;4993685;28;20031;-67
2023/11/05 01:56:36;;;;;;;0.93;0.65;;;10.80;99.90;;;;;;5011727;28;20069;-67
2023/11/05 01:59:03;;;;;;;0.00;0.00;;;10.80;99.90;;;;;;4994137;28;20022;-68
2023/11/05 02:01:29;;;;;;;0.10;0.10;;;10.80;99.90;;;;;;5011068;28;20030;-68
2023/11/05 02:03:55;;;;;;;1.15;0.08;;;10.70;99.90;;;;;;5011071;28;20032;-69
2023/11/05 02:06:21;;;;;;;0.15;0.13;;;10.70;99.90;;;;;;5011833;28;20065;-68
2023/11/05 02:08:47;;;;;;;0.00;0.00;;;10.60;99.90;;;;;;5022034;28;20040;-67
2023/11/05 02:11:13;;;;;;;0.00;0.00;;;10.60;99.90;;;;;;5013972;28;20030;-68
2023/11/05 02:13:54;;;;;;;0.00;0.00;;;10.60;99.90;;;;;;4994313;28;20038;-68
2023/11/05 02:16:22;;;;;;;;;;;10.60;99.90;;;;;;5008049;28;20041;-68
2023/11/05 02:18:49;;;;;;;0.20;0.20;;;10.50;99.90;;;;;;4993964;28;19936;-68
2023/11/05 02:21:50;;;;;;;0.55;0.47;;;10.50;99.90;;;;;;5004726;28;20610;-67
2023/11/05 02:24:16;;;;;;;0.00;0.00;;;10.50;99.90;;;;;;5015911;28;20133;-68
2023/11/05 02:26:41;;;;;;;0.08;0.08;;;10.50;99.90;;;;;;5011325;28;20116;-69
2023/11/05 02:29:07;;;;;;;0.00;0.00;;;10.40;99.90;;;;;;4993322;28;20030;-67
2023/11/05 02:31:33;;;;;;;0.00;0.00;;;10.40;99.90;;;;;;4993932;28;20037;-68
2023/11/05 02:34:00;;;;;;;0.10;0.10;;;10.50;99.90;;;;;;4993105;28;20028;-67
2023/11/05 02:36:26;;;;;;;0.30;0.30;;;10.40;99.90;;;;;;5011339;28;20030;-67
2023/11/05 02:38:52;;;;;;;0.60;0.32;;;10.50;99.90;;;;;;4993391;28;20541;-67
2023/11/05 02:41:18;;;;;;;0.00;0.00;;;10.50;99.90;;;;;;5010398;28;20040;-68
2023/11/05 02:43:43;;;;;;;5.57;2.75;;;10.50;99.90;;;;;;5009951;28;20022;-67
2023/11/05 02:46:09;;;;;;;0.00;0.00;;;10.50;99.90;;;;;;5009487;28;20536;-68
2023/11/05 02:48:35;;;;;;;0.20;0.10;;;10.50;99.90;;;;;;4993654;28;20112;-67
2023/11/05 02:51:01;;;;;;;5.57;0.40;;;10.40;99.90;;;;;;5011003;28;20053;-68
2023/11/05 02:53:27;;;;;;;0.35;0.20;;;10.50;99.90;;;;;;4974367;28;20034;-68
2023/11/05 02:55:53;;;;;;;0.85;0.55;;;10.40;99.90;;;;;;5008187;28;21800;-68
2023/11/05 02:58:19;;;;;;;0.00;0.00;;;10.40;99.90;;;;;;4993587;28;20030;-68
2023/11/05 03:00:45;;;;;;;0.32;0.20;;;10.40;99.90;;;;;;5010670;28;20041;-67
2023/11/05 03:03:12;;;;;;;0.43;0.20;;;10.30;99.90;;;;;;5011278;28;20018;-68
2023/11/05 03:05:44;;;;;;;8.15;0.32;;;10.30;99.90;;;;;;5010501;28;20042;-68
2023/11/05 03:08:11;;;;;;;0.20;0.10;;;10.30;99.90;;;;;;4993553;28;20113;-68
2023/11/05 03:10:38;;;;;;;0.10;0.10;;;10.20;99.90;;;;;;5010334;28;20046;-68
2023/11/05 03:13:04;;;;;;;2.15;0.40;;;10.20;99.90;;;;;;4993709;28;20133;-68
2023/11/05 03:15:29;;;;;;;1.60;1.30;;;10.30;99.90;;;;;;4994181;28;20049;-68
2023/11/05 03:17:55;;;;;;;0.17;0.17;;;10.30;99.90;;;;;;4977035;28;20026;-68
2023/11/05 03:20:21;;;;;;;0.10;0.10;;;10.20;99.90;;;;;;4993255;28;20112;-68
2023/11/05 03:22:47;;;;;;;0.47;0.45;;;10.30;99.90;;;;;;4996626;28;20038;-67
2023/11/05 03:25:13;;;;;;;2.30;0.43;;;10.30;99.90;;;;;;4997423;28;20038;-68
2023/11/05 03:27:38;;;;;;;0.30;0.10;;;10.30;99.90;;;;;;4997253;28;20034;-68
2023/11/05 03:30:05;;;;;;;0.10;0.10;;;10.30;99.90;;;;;;4991406;28;20049;-68
2023/11/05 03:32:32;;;;;;;1.25;0.65;;;10.30;99.90;;;;;;5014944;28;20026;-68
2023/11/05 03:34:58;;;;;;;1.17;0.40;;;10.20;99.90;;;;;;4997258;28;20481;-67
2023/11/05 03:37:24;;;;;;;0.10;0.10;;;10.30;99.90;;;;;;4996804;28;20046;-68
2023/11/05 03:39:50;;;;;;;2.30;0.70;;;10.30;99.90;;;;;;5014032;28;20105;-68
2023/11/05 03:42:16;;;;;;;0.17;0.17;;;10.20;99.90;;;;;;5014993;28;20049;-69
2023/11/05 03:44:42;;;;;;;2.05;0.38;;;10.30;99.90;;;;;;5014719;28;20053;-68
2023/11/05 03:47:09;;;;;;;0.43;0.28;;;10.30;99.90;;;;;;4978424;28;20030;-69
2023/11/05 03:49:35;;;;;;;8.68;0.32;;;10.30;99.90;;;;;;5011390;28;20121;-68
2023/11/05 03:52:02;;;;;;;0.22;0.22;;;10.30;99.90;;;;;;4997027;28;20117;-67
2023/11/05 03:54:29;;;;;;;0.10;0.10;;;10.30;99.90;;;;;;4996837;28;20520;-67
2023/11/05 03:56:56;;;;;;;4.47;0.77;;;10.40;99.90;;;;;;5014015;28;20018;-68
2023/11/05 03:59:23;;;;;;;0.10;0.10;;;10.40;99.90;;;;;;5001059;28;20084;-67
2023/11/05 04:01:52;;;;;;;0.25;0.25;;;10.50;99.90;;;;;;5015921;28;20056;-68
2023/11/05 04:04:18;;;;;;;0.10;0.10;;;10.50;99.90;;;;;;4996578;28;20095;-68
2023/11/05 04:06:44;;;;;;;1.48;0.22;;;10.50;99.90;;;;;;5013958;28;20018;-67
2023/11/05 04:09:10;;;;;;;0.35;0.30;;;10.50;99.90;;;;;;4996767;28;20117;-68
2023/11/05 04:11:36;;;;;;;0.32;0.20;;;10.50;99.90;;;;;;5013991;28;20026;-68
2023/11/05 04:14:03;;;;;;;0.38;0.25;;;10.50;99.90;;;;;;4997251;28;20104;-68
2023/11/05 04:16:29;;;;;;;0.10;0.10;;;10.50;99.90;;;;;;5013706;28;21004;-67
2023/11/05 04:18:57;;;;;;;1.10;0.47;;;10.50;99.90;;;;;;5012976;28;20036;-68
2023/11/05 04:21:23;;;;;;;1.25;0.38;;;10.50;99.90;;;;;;4985050;28;20547;-68
2023/11/05 04:23:49;;;;;;;1.55;1.17;;;10.50;99.90;;;;;;4995172;28;20021;-68
2023/11/05 04:26:14;;;;;;;1.13;0.50;;;10.40;99.90;;;;;;5011070;28;20372;-68
2023/11/05 04:28:40;;;;;;;1.23;0.77;;;10.40;99.90;;;;;;4996030;28;20030;-68
2023/11/05 04:31:06;;;;;;;0.95;0.47;;;10.30;99.90;;;;;;5013737;28;20355;-68
2023/11/05 04:33:32;;;;;;;0.13;0.10;;;10.20;99.90;;;;;;5000709;28;20044;-68
2023/11/05 04:35:58;;;;;;;0.10;0.10;;;10.20;99.90;;;;;;5011346;28;20418;-67
2023/11/05 04:38:24;;;;;;;2.28;0.90;;;10.10;99.90;;;;;;5014334;28;20030;-68
2023/11/05 04:40:50;;;;;;;0.60;0.30;;;10.10;99.90;;;;;;5012926;28;20156;-67
2023/11/05 04:43:16;;;;;;;1.27;0.40;;;10.20;99.90;;;;;;4996083;28;20546;-67
2023/11/05 04:45:42;;;;;;;0.65;0.63;;;10.30;99.90;;;;;;4996028;28;20164;-67
2023/11/05 04:48:08;;;;;;;0.20;0.20;;;10.50;99.90;;;;;;5012249;28;20026;-67
2023/11/05 04:50:33;;;;;;;1.95;1.00;;;10.70;99.90;;;;;;5011492;28;20045;-68
2023/11/05 04:53:21;;;;;;;1.50;0.50;;;10.80;99.90;;;;;;5013467;28;20458;-67
2023/11/05 04:55:47;;;;;;;1.33;0.45;;;10.80;99.90;;;;;;5012122;28;20506;-68
2023/11/05 04:58:13;;;;;;;0.57;0.22;;;10.80;99.90;;;;;;5013157;28;20100;-68
2023/11/05 05:00:39;;;;;;;0.38;0.30;;;10.80;99.90;;;;;;5012572;28;20105;-68
2023/11/05 05:03:04;;;;;;;6.95;0.63;;;10.80;99.90;;;;;;4995622;28;20018;-67
2023/11/05 05:05:30;;;;;;;0.00;0.00;;;10.80;99.90;;;;;;4991670;28;20034;-69
2023/11/05 05:07:56;;;;;;;3.30;1.05;;;10.90;99.90;;;;;;4995527;28;20080;-69
2023/11/05 05:10:22;;;;;;;0.75;0.73;;;10.90;99.90;;;;;;4991104;28;20076;-68
2023/11/05 05:12:48;;;;;;;1.20;0.17;;;11.00;99.90;;;;;;4995510;28;20121;-68
2023/11/05 05:15:14;;;;;;;2.22;1.05;;;11.10;99.90;;;;;;5012393;28;20037;-68
2023/11/05 05:17:39;;;;;;;2.28;0.85;;;11.20;99.90;;;;;;5012603;28;20416;-69
2023/11/05 05:20:08;;;;;;;0.10;0.10;;;11.30;99.90;;;;;;4997054;28;20101;-69
2023/11/05 05:22:34;;;;;;;0.57;0.30;;;11.40;99.90;;;;;;4998313;28;20040;-69
2023/11/05 05:25:00;;;;;;;1.77;0.65;;;11.50;99.90;;;;;;5019905;28;20030;-68
2023/11/05 05:27:25;;;;;;;2.88;0.17;;;11.60;99.90;;;;;;4995046;28;20552;-68
2023/11/05 05:29:52;;;;;;;0.75;0.40;;;11.60;99.90;;;;;;5011620;28;20029;-68
2023/11/05 05:32:18;;;;;;;0.32;0.05;;;11.70;99.90;;;;;;5012574;28;20029;-68
2023/11/05 05:34:44;;;;;;;0.30;0.30;;;11.80;99.90;;;;;;5011010;28;20044;-68
2023/11/05 05:37:10;;;;;;;0.13;0.10;;;11.80;99.90;;;;;;5011931;28;20022;-68
2023/11/05 05:39:36;;;;;;;0.75;0.45;;;11.80;99.90;;;;;;5011214;28;20551;-68
2023/11/05 05:42:03;;;;;;;2.58;0.43;;;11.80;99.90;;;;;;4994716;28;20034;-68
2023/11/05 05:44:30;;;;;;;1.77;0.55;;;11.80;99.90;;;;;;5010832;28;20026;-68
2023/11/05 05:46:56;;;;;;;1.23;0.20;;;11.80;99.90;;;;;;4994345;28;20083;-68
2023/11/05 05:49:22;;;;;;;0.00;0.00;;;11.80;99.90;;;;;;5010993;28;20046;-68
2023/11/05 05:51:48;;;;;;;0.05;0.05;;;11.90;99.90;;;;;;5020059;28;20038;-68
2023/11/05 05:54:14;;;;;;;0.00;0.00;;;11.90;99.90;;;;;;5010853;28;20454;-68
2023/11/05 05:56:39;;;;;;;0.63;0.30;;;11.90;99.90;;;;;;5011738;28;20091;-68
2023/11/05 05:59:05;;;;;;;1.45;0.50;;;11.90;99.90;;;;;;5010921;28;20494;-68
2023/11/05 06:01:31;;;;;;;0.10;0.10;;;11.90;99.90;;;;;;5012066;28;20160;-70
2023/11/05 06:03:57;;;;;;;0.00;0.00;;;11.90;99.90;;;;;;5011096;28;20021;-68
2023/11/05 06:06:24;;;;;;;0.20;0.20;;;11.80;99.90;;;;;;5012739;28;20454;-68
2023/11/05 06:08:50;;;;;;;3.35;0.32;;;11.80;99.90;;;;;;5015365;28;20116;-68
2023/11/05 06:11:15;;;;;;;0.15;0.10;;;11.80;99.90;;;;;;5011440;28;20153;-69
2023/11/05 06:13:41;;;;;;;0.40;0.38;;;11.90;99.90;;;;;;5010613;28;20120;-68
2023/11/05 06:16:07;;;;;;;0.47;0.20;;;11.90;99.90;;;;;;5013045;28;20037;-67
2023/11/05 06:18:33;;;;;;;0.30;0.22;;;11.90;99.90;;;;;;5011894;28;20029;-66
2023/11/05 06:20:59;;;;;;;3.97;0.60;;;11.90;99.90;;;;;;5010831;28;20025;-67
2023/11/05 06:23:25;;;;;;;1.15;0.45;;;11.90;99.90;;;;;;5009940;28;20034;-67
2023/11/05 06:25:51;;;;;;;0.00;0.00;;;11.90;99.90;;;;;;5007892;28;20045;-69
2023/11/05 06:28:17;;;;;;;0.00;0.00;;;11.90;99.90;;;;;;4994023;28;20034;-68
2023/11/05 06:30:43;;;;;;;0.00;0.00;;;11.90;99.90;;;;;;5012742;28;20088;-67
2023/11/05 06:33:09;;;;;;;0.00;0.00;;;11.90;99.90;;;;;;4999241;28;20374;-68
2023/11/05 06:35:34;;;;;;;1.98;0.10;;;11.90;99.90;;;;;;4999048;28;20041;-69
2023/11/05 06:38:00;;;;;;;0.00;0.00;;;11.90;99.90;;;;;;5011590;28;20087;-69
2023/11/05 06:40:26;;;;;;;0.47;0.47;;;11.90;99.90;;;;;;4996435;28;20060;-67
2023/11/05 06:42:54;;;;;;;1.27;0.52;;;11.90;99.90;;;;;;5013990;28;20108;-65
2023/11/05 06:45:20;;;;;;;0.40;0.20;;;11.90;99.90;;;;;;5008934;28;20044;-65
2023/11/05 06:47:46;;;;;;;2.45;0.43;;;11.80;99.90;;;;;;5009248;28;20042;-64
2023/11/05 06:50:12;;;;;;;1.65;0.30;;;11.70;99.90;;;;;;5014648;28;20551;-65
2023/11/05 06:52:39;;;;;;;0.35;0.35;;;11.60;99.90;;;;;;5009287;28;20529;-66
2023/11/05 06:55:05;;;;;;;0.10;0.10;;;11.40;99.90;;;;;;5013686;28;20033;-66
2023/11/05 06:57:34;;;;;;;1.85;0.50;;;11.30;99.90;;;;;;5015703;28;20038;-66
2023/11/05 07:00:04;;;;;;;1.15;0.30;;;11.10;99.90;;;;;;4997838;28;20549;-65
2023/11/05 07:02:33;;;;;;;0.00;0.00;;;11.00;99.90;;;;;;5012691;28;20037;-66
2023/11/05 07:05:04;;;;;;;0.17;0.15;;;10.80;99.90;;;;;;5015413;28;20030;-64
2023/11/05 07:07:32;;;;;;;0.85;0.40;;;10.70;99.90;;;;;;5017304;28;20091;-66
2023/11/05 07:10:00;;;;;;;0.13;0.03;;;10.60;99.90;;;;;;4997921;28;20412;-64
2023/11/05 07:12:26;;;;;;;0.05;0.05;;;10.60;99.90;;;;;;5016971;28;20478;-65
2023/11/05 07:14:51;;;;;;;0.00;0.00;;;10.50;99.90;;;;;;4998202;28;20037;-66
2023/11/05 07:17:17;;;;;;;0.20;0.10;;;10.40;99.90;;;;;;5020179;28;20045;-65
2023/11/05 07:19:43;;;;;;;0.20;0.03;;;10.40;99.90;;;;;;5016687;28;20033;-65
2023/11/05 07:22:11;;;;;;;6.13;0.20;;;10.40;99.90;;;;;;5016346;28;20026;-65
2023/11/05 07:24:38;;;;;;;0.20;0.20;;;10.40;99.90;;;;;;5015601;28;20040;-65
2023/11/05 07:27:05;;;;;;;0.32;0.32;;;10.30;99.90;;;;;;5015429;28;20022;-66
2023/11/05 07:29:31;;;;;;;1.67;0.98;;;10.30;99.90;;;;;;4998010;28;20076;-65
2023/11/05 07:31:58;;;;;;;0.00;0.00;;;10.40;99.90;;;;;;5015075;28;20110;-64
2023/11/05 07:34:24;;;;;;;0.10;0.10;;;10.40;99.90;;;;;;5015729;28;20378;-63
2023/11/05 07:36:49;;;;;;;0.00;0.00;;;10.40;99.90;;;;;;4997205;28;20022;-64
2023/11/05 07:39:15;;;;;;;0.90;0.40;;;10.50;99.90;;;;;;5015286;28;20026;-65
2023/11/05 07:41:41;;;;;;;1.90;0.45;;;10.50;99.90;;;;;;5014889;28;20088;-65
2023/11/05 07:44:07;;;;;;;0.00;0.00;;;10.60;99.90;;;;;;4997676;28;20034;-65
2023/11/05 07:46:35;;;;;;;0.50;0.50;;;10.60;99.90;;;;;;4997121;28;20038;-65
2023/11/05 07:49:01;;;;;;;0.70;0.13;;;10.70;99.90;;;;;;5014539;28;20756;-65
2023/11/05 07:51:27;;;;;;;0.10;0.10;;;10.70;99.90;;;;;;5013974;28;20056;-65
2023/11/05 07:53:53;;;;;;;0.10;0.10;;;10.70;99.90;;;;;;5014270;28;20041;-65
2023/11/05 07:56:19;;;;;;;0.22;0.22;;;10.70;99.90;;;;;;5013660;28;20379;-65
2023/11/05 07:58:45;;;;;;;0.85;0.25;;;10.80;99.90;;;;;;4996708;28;20033;-65
2023/11/05 08:01:14;;;;;;;0.15;0.10;;;10.80;99.90;;;;;;5013670;28;20025;-65
2023/11/05 08:03:42;;;;;;;1.70;0.57;;;10.80;99.90;;;;;;5014520;28;20022;-65
2023/11/05 08:06:08;;;;;;;0.38;0.30;;;10.90;99.90;;;;;;5014177;28;20034;-65
2023/11/05 08:08:34;;;;;;;0.10;0.10;;;10.90;99.90;;;;;;5022445;28;20040;-65
2023/11/05 08:11:00;;;;;;;0.10;0.00;;;10.90;99.90;;;;;;5013845;28;20037;-65
2023/11/05 08:13:26;;;;;;;0.00;0.00;;;10.90;99.90;;;;;;5004777;28;20033;-65
2023/11/05 08:15:51;;;;;;;0.15;0.15;;;11.00;99.90;;;;;;5013242;28;20117;-65
2023/11/05 08:18:18;;;;;;;0.32;0.10;;;11.00;99.90;;;;;;5013955;28;20029;-68
2023/11/05 08:20:44;;;;;;;0.32;0.22;;;11.10;99.90;;;;;;4995196;28;20034;-68
2023/11/05 08:23:11;;;;;;;0.13;0.10;;;11.00;99.90;;;;;;5014838;28;20669;-71
2023/11/05 08:25:37;;;;;;;1.10;0.60;;;11.00;99.90;;;;;;4992370;28;20049;-67
2023/11/05 08:28:03;;;;;;;0.03;0.03;;;11.00;99.90;;;;;;5014741;28;20045;-64
2023/11/05 08:30:28;;;;;;;0.20;0.15;;;11.00;99.90;;;;;;5012565;28;20064;-65
2023/11/05 08:32:54;;;;;;;5.82;0.32;;;11.00;99.90;;;;;;5013194;28;20486;-66
2023/11/05 08:35:20;;;;;;;0.77;0.45;;;11.00;99.90;;;;;;5012126;28;20485;-64
2023/11/05 08:37:49;;;;;;;4.68;0.20;;;11.00;99.90;;;;;;5012424;28;20393;-64
2023/11/05 08:40:16;;;;;;;0.43;0.20;;;11.00;99.90;;;;;;5012035;28;20367;-65
2023/11/05 08:42:43;;;;;;;0.10;0.10;;;11.00;99.90;;;;;;5011093;28;20040;-64
2023/11/05 08:45:10;;;;;;;0.00;0.00;;;10.90;99.90;;;;;;5011935;28;20026;-65
2023/11/05 08:47:36;;;;;;;0.25;0.20;;;10.90;99.90;;;;;;5011435;28;20057;-65
2023/11/05 08:50:06;;;;;;;0.00;0.00;;;11.00;99.90;;;;;;5011797;28;20704;-64
2023/11/05 08:52:33;;;;;;;0.00;0.00;;;11.00;99.90;;;;;;4992635;28;20360;-64
2023/11/05 08:55:01;;;;;;;0.57;0.47;;;11.10;99.90;;;;;;4994029;28;20052;-63
2023/11/05 08:57:28;;;;;;;0.20;0.20;;;11.10;99.90;;;;;;5010580;28;20056;-64
2023/11/05 08:59:53;;;;;;;0.88;0.17;;;11.10;99.90;;;;;;5011605;28;20116;-63
2023/11/05 09:02:19;;;;;;;3.83;0.68;;;11.10;99.90;;;;;;4992395;28;20509;-65
2023/11/05 09:04:46;;;;;;;0.13;0.10;;;11.20;99.90;;;;;;5019814;28;20037;-64
2023/11/05 09:07:12;;;;;;;7.32;0.55;;;11.20;99.90;;;;;;5010238;28;20180;-65
2023/11/05 09:09:38;;;;;;;0.00;0.00;;;11.20;99.90;;;;;;5011195;28;20072;-65
2023/11/05 09:12:09;;;;;;;0.98;0.90;;;11.20;99.90;;;;;;5009989;28;20113;-64
2023/11/05 09:14:35;;;;;;;0.00;0.00;;;11.20;99.90;;;;;;5011510;28;20065;-65
2023/11/05 09:17:02;;;;;;;0.17;0.17;;;11.30;99.90;;;;;;5009828;28;20025;-65
2023/11/05 09:19:28;;;;;;;0.10;0.10;;;11.30;99.90;;;;;;5010569;28;20075;-65
2023/11/05 09:21:54;;;;;;;0.17;0.17;;;11.30;99.90;;;;;;5010351;28;20044;-64
2023/11/05 09:24:20;;;;;;;0.17;0.15;;;11.30;99.90;;;;;;5011253;28;20048;-65
2023/11/05 09:26:46;;;;;;;0.32;0.08;;;11.30;99.90;;;;;;5009969;28;20501;-64
2023/11/05 09:29:13;;;;;;;0.08;0.00;;;11.30;99.90;;;;;;5011400;28;20052;-65
2023/11/05 09:31:38;;;;;;;0.08;0.08;;;11.30;99.90;;;;;;5010436;28;20064;-65
2023/11/05 09:34:07;;;;;;;0.08;0.08;;;11.30;99.90;;;;;;5011119;28;20100;-65
2023/11/05 09:36:33;;;;;;;1.05;0.52;;;11.30;99.90;;;;;;5009619;28;20075;-64
2023/11/05 09:38:59;;;;;;;0.32;0.08;;;11.40;99.90;;;;;;5010785;28;20022;-65
2023/11/05 09:41:27;;;;;;;0.10;0.00;;;11.40;99.90;;;;;;5010404;28;20113;-65
2023/11/05 09:43:53;;;;;;;0.00;0.00;;;11.50;99.90;;;;;;5010556;28;20022;-65
2023/11/05 09:46:23;;;;;;;1.15;0.30;;;11.40;99.90;;;;;;5009214;28;20045;-65
2023/11/05 09:48:48;;;;;;;1.75;0.17;;;11.50;99.90;;;;;;4995721;28;20352;-65
2023/11/05 09:51:14;;;;;;;4.05;0.35;;;11.50;99.90;;;;;;4992531;28;20036;-65
2023/11/05 09:53:40;;;;;;;0.00;0.00;;;11.50;99.90;;;;;;5010158;28;20038;-65
2023/11/05 09:56:06;;;;;;;0.00;0.00;;;11.60;99.90;;;;;;5012077;28;20044;-65
2023/11/05 09:58:32;;;;;;;0.17;0.17;;;11.70;99.90;;;;;;5012926;28;20121;-66
2023/11/05 10:01:04;;;;;;;1.00;0.47;;;11.70;99.90;;;;;;5009488;28;20124;-64
2023/11/05 10:03:31;;;;;;;0.32;0.15;;;11.70;99.90;;;;;;5010564;28;20049;-66
2023/11/05 10:05:57;;;;;;;0.98;0.60;;;11.80;99.90;;;;;;4991809;28;20034;-64
2023/11/05 10:08:24;;;;;;;0.47;0.40;;;11.80;99.90;;;;;;5010335;28;20379;-65
2023/11/05 10:10:56;;;;;;;0.98;0.30;;;11.90;99.90;;;;;;5008966;28;20045;-65
2023/11/05 10:13:25;;;;;;;0.00;0.00;;;12.00;99.90;;;;;;4993563;28;20038;-64
2023/11/05 10:15:52;;;;;;;0.30;0.20;;;12.00;99.90;;;;;;5009057;28;20040;-65
2023/11/05 10:18:18;;;;;;;0.00;0.00;;;12.00;99.90;;;;;;4999477;28;20041;-65
2023/11/05 10:20:55;;;;;;;0.75;0.13;;;12.10;99.90;;;;;;5012902;28;20142;-65
2023/11/05 10:23:23;;;;;;;0.35;0.20;;;12.10;99.90;;;;;;5016711;28;20068;-65
2023/11/05 10:25:51;;;;;;;0.10;0.10;;;12.30;99.90;;;;;;5020963;28;20097;-68
2023/11/05 10:28:19;;;;;;;0.00;0.00;;;12.30;99.90;;;;;;5022219;28;20044;-65
2023/11/05 10:30:51;;;;;;;1.02;0.47;;;12.40;99.90;;;;;;5019142;28;20034;-65
2023/11/05 10:33:17;;;;;;;0.22;0.22;;;12.40;99.90;;;;;;5011215;28;20034;-66
2023/11/05 10:35:44;;;;;;;0.00;0.00;;;12.40;99.90;;;;;;5010289;28;20075;-66
2023/11/05 10:38:16;;;;;;;0.60;0.30;;;12.40;99.90;;;;;;5010697;28;20096;-66
2023/11/05 10:40:42;;;;;;;0.00;0.00;;;12.50;99.90;;;;;;5011263;28;20091;-66
2023/11/05 10:43:09;;;;;;;0.68;0.20;;;12.40;99.90;;;;;;5011163;28;20025;-67
2023/11/05 10:45:37;;;;;;;4.13;0.32;;;12.40;99.90;;;;;;4993996;28;20545;-66
2023/11/05 10:48:06;;;;;;;0.10;0.10;;;12.50;99.90;;;;;;5010501;28;20375;-67
2023/11/05 10:50:33;;;;;;;0.65;0.00;;;12.40;99.90;;;;;;4993864;28;20026;-66
2023/11/05 10:53:04;;;;;;;0.10;0.10;;;12.30;99.90;;;;;;4993445;28;20034;-66
2023/11/05 10:55:41;;;;;;;1.50;0.17;;;12.20;99.90;;;;;;4998042;28;20042;-63
2023/11/05 10:58:07;;;;;;;0.00;0.00;;;12.10;99.90;;;;;;5001495;28;20312;-67
2023/11/05 11:00:35;;;;;;;0.13;0.13;;;12.10;99.90;;;;;;4987103;28;20478;-66
2023/11/05 11:03:03;;;;;;;0.00;0.00;;;12.10;99.90;;;;;;5002791;28;20427;-66
2023/11/05 11:05:43;;;;;;;0.00;0.00;;;12.10;99.90;;;;;;5012342;28;20501;-66
2023/11/05 11:08:15;;;;;;;0.00;0.00;;;12.10;99.90;;;;;;5011225;28;20029;-67
2023/11/05 11:10:45;;;;;;;0.15;0.10;;;12.10;99.90;;;;;;5010176;28;20046;-66
2023/11/05 11:13:12;;;;;;;0.45;0.20;;;12.20;99.90;;;;;;4994096;28;20536;-66
2023/11/05 11:15:39;;;;;;;2.17;0.55;;;12.20;99.90;;;;;;4993015;28;20045;-66
2023/11/05 11:18:19;;;;;;;0.00;0.00;;;12.20;99.90;;;;;;5001385;28;20032;-65
2023/11/05 11:20:57;;;;;;;0.77;0.35;;;12.20;99.90;;;;;;4993571;28;20610;-64
2023/11/05 11:23:25;;;;;;;6.63;0.85;;;12.20;99.90;;;;;;5010934;28;20048;-64
2023/11/05 11:26:05;;;;;;;0.50;0.05;;;12.00;99.90;;;;;;5008202;28;20398;-64
2023/11/05 11:28:33;;;;;;;0.00;0.00;;;11.90;99.90;;;;;;5001121;28;20041;-65
2023/11/05 11:31:01;;;;;;;0.45;0.45;;;11.70;99.90;;;;;;5010026;28;20072;-65
2023/11/05 11:33:27;;;;;;;0.25;0.15;;;11.70;99.90;;;;;;5010736;28;20091;-65
2023/11/05 11:35:53;;;;;;;1.30;0.32;;;11.70;99.90;;;;;;5009451;28;20038;-65
2023/11/05 11:38:19;;;;;;;0.08;0.08;;;11.70;99.90;;;;;;5010658;28;20359;-65
2023/11/05 11:41:05;;;;;;;0.10;0.10;;;11.70;99.90;;;;;;5009819;28;20053;-64
2023/11/05 11:43:31;;;;;;;0.10;0.10;;;11.70;99.90;;;;;;5013172;28;20080;-65
2023/11/05 11:45:57;;;;;;;0.00;0.00;;;11.70;99.90;;;;;;5006904;28;20060;-65
2023/11/05 11:48:26;;;;;;;0.13;0.13;;;11.80;99.90;;;;;;5018666;28;20037;-65
2023/11/05 11:51:01;;;;;;;0.00;0.00;;;11.80;99.90;;;;;;5010849;28;20030;-65
2023/11/05 11:53:29;;;;;;;0.20;0.20;;;11.90;99.90;;;;;;5014237;28;20114;-66
2023/11/05 11:55:57;;;;;;;0.00;0.00;;;12.00;99.90;;;;;;5013077;28;20120;-65
2023/11/05 11:58:24;;;;;;;0.30;0.20;;;12.00;99.90;;;;;;5014125;28;20075;-66
2023/11/05 12:00:56;;;;;;;0.00;0.00;;;12.10;99.90;;;;;;4978032;28;20046;-66
2023/11/05 12:03:26;;;;;;;0.15;0.10;;;12.20;99.90;;;;;;5014156;28;20026;-66
2023/11/05 12:05:52;;;;;;;1.45;0.40;;;12.30;99.90;;;;;;4996580;28;20041;-65
2023/11/05 12:08:49;;;;;;;1.95;0.63;;;12.30;99.90;;;;;;5013761;28;20117;-67
2023/11/05 12:11:16;;;;;;;0.08;0.08;;;12.30;99.90;;;;;;4985864;28;20038;-66
2023/11/05 12:13:43;;;;;;;3.92;1.05;;;12.40;99.90;;;;;;5002034;28;20045;-66
2023/11/05 12:16:11;;;;;;;1.75;0.52;;;12.40;99.90;;;;;;5013780;28;20049;-66
2023/11/05 12:18:40;;;;;;;0.10;0.10;;;12.50;99.90;;;;;;4996021;28;20041;-66
2023/11/05 12:21:14;;;;;;;0.10;0.10;;;12.60;99.90;;;;;;5016490;28;20029;-66
2023/11/05 12:23:42;;;;;;;0.00;0.00;;;12.70;99.90;;;;;;5018992;28;20061;-66
2023/11/05 12:26:09;;;;;;;4.95;0.75;;;12.90;99.90;;;;;;5013436;28;20041;-65
2023/11/05 12:28:35;;;;;;;0.55;0.22;;;13.20;99.90;;;;;;4981597;28;20038;-64
2023/11/05 12:31:04;;;;;;;0.10;0.10;;;13.30;99.90;;;;;;5009550;28;20504;-64
2023/11/05 12:33:34;;;;;;;0.43;0.10;;;13.40;99.90;;;;;;4996583;28;20502;-68
2023/11/05 12:36:00;;;;;;;0.33;0.33;;;13.40;99.90;;;;;;5011847;28;20042;-67
2023/11/05 12:38:27;;;;;;;0.28;0.22;;;13.30;99.90;;;;;;4996475;28;20315;-75
2023/11/05 12:40:56;;;;;;;0.10;0.10;;;13.10;99.90;;;;;;4978849;28;20474;-74
2023/11/05 12:43:24;;;;;;;0.10;0.10;;;13.10;99.90;;;;;;4996711;28;20030;-75
2023/11/05 12:45:58;;;;;;;0.20;0.20;;;13.30;99.90;;;;;;4997149;28;20048;-74
2023/11/05 12:48:28;;;;;;;0.55;0.30;;;13.10;99.90;;;;;;5005001;28;20029;-73